createdAt,value
2019-05-10T00:01:44.449Z,77.10
2019-05-10T00:04:31.304Z,77.90
2019-05-10T00:07:18.234Z,78.00
2019-05-10T00:09:46.573Z,78.30
2019-05-10T00:12:17.267Z,78.60
2019-05-10T00:14:47.865Z,78.50
2019-05-10T00:17:18.315Z,78.80
2019-05-10T00:19:47.291Z,79.20
2019-05-10T00:22:16.393Z,79.20
2019-05-10T00:25:00.859Z,78.70
2019-05-10T00:27:16.334Z,79.00
2019-05-10T00:29:45.468Z,79.00
2019-05-10T00:32:14.857Z,78.70
2019-05-10T00:34:43.819Z,79.40
2019-05-10T00:37:12.939Z,78.30
2019-05-10T00:39:42.166Z,78.80
2019-05-10T00:42:11.154Z,79.20
2019-05-10T00:44:40.173Z,79.00
2019-05-10T00:47:09.154Z,79.40
2019-05-10T00:49:38.110Z,79.00
2019-05-10T00:52:07.244Z,78.80
2019-05-10T00:54:36.185Z,79.40
2019-05-10T00:57:05.224Z,79.00
2019-05-10T00:59:34.279Z,79.50
2019-05-10T01:02:03.318Z,79.40
2019-05-10T01:04:32.455Z,79.40
2019-05-10T01:07:01.421Z,79.40
2019-05-10T01:09:30.373Z,79.10
2019-05-10T01:11:59.363Z,79.20
2019-05-10T01:14:28.322Z,79.70
2019-05-10T01:16:57.376Z,79.20
2019-05-10T01:19:26.409Z,79.00
2019-05-10T01:21:55.416Z,78.40
2019-05-10T01:24:24.380Z,79.00
2019-05-10T01:26:53.324Z,79.10
2019-05-10T01:29:22.299Z,79.40
2019-05-10T01:31:51.259Z,79.20
2019-05-10T01:34:20.263Z,79.30
2019-05-10T01:36:49.301Z,79.50
2019-05-10T01:39:18.253Z,79.60
2019-05-10T01:41:47.230Z,79.20
2019-05-10T01:44:16.186Z,79.30
2019-05-10T01:46:45.559Z,79.20
2019-05-10T01:49:14.796Z,79.10
2019-05-10T01:51:43.759Z,79.10
2019-05-10T01:54:12.783Z,79.00
2019-05-10T01:56:41.747Z,78.80
2019-05-10T01:59:10.741Z,78.80
2019-05-10T02:01:40.050Z,79.20
2019-05-10T02:04:09.006Z,79.50
2019-05-10T02:06:37.980Z,79.70
2019-05-10T02:09:07.790Z,79.90
2019-05-10T02:11:36.870Z,80.30
2019-05-10T02:14:06.036Z,80.50
2019-05-10T02:16:34.999Z,80.80
2019-05-10T02:19:04.104Z,81.20
2019-05-10T02:21:33.067Z,81.40
2019-05-10T02:24:02.080Z,81.50
2019-05-10T02:26:31.095Z,82.40
2019-05-10T02:29:00.045Z,82.70
2019-05-10T02:31:29.026Z,82.80
2019-05-10T02:33:57.973Z,82.90
2019-05-10T02:36:26.968Z,82.90
2019-05-10T02:38:55.937Z,82.70
2019-05-10T02:41:24.899Z,82.90
2019-05-10T02:43:53.881Z,82.50
2019-05-10T02:46:22.911Z,82.60
2019-05-10T02:48:51.905Z,83.30
2019-05-10T02:51:20.864Z,83.30
2019-05-10T02:53:49.823Z,83.00
2019-05-10T02:56:30.402Z,83.00
2019-05-10T02:58:52.811Z,83.30
2019-05-10T03:01:25.399Z,83.50
2019-05-10T03:03:56.423Z,84.00
2019-05-10T03:06:28.389Z,84.30
2019-05-10T03:08:57.622Z,84.10
2019-05-10T03:11:29.932Z,83.80
2019-05-10T03:14:02.076Z,83.90
2019-05-10T03:16:34.176Z,84.40
2019-05-10T03:19:04.304Z,83.70
2019-05-10T03:21:36.353Z,83.90
2019-05-10T03:24:05.356Z,84.00
2019-05-10T03:26:50.478Z,84.30
2019-05-10T03:29:06.178Z,84.30
2019-05-10T03:31:35.599Z,84.30
2019-05-10T03:34:04.716Z,84.20
2019-05-10T03:36:34.033Z,84.10
2019-05-10T03:39:03.413Z,84.10
2019-05-10T03:41:32.766Z,84.10
2019-05-10T03:44:02.075Z,84.10
2019-05-10T03:46:31.097Z,84.00
2019-05-10T03:49:00.129Z,83.70
2019-05-10T03:51:29.170Z,83.50
2019-05-10T03:53:58.209Z,83.20
2019-05-10T03:56:29.840Z,83.70
2019-05-10T03:58:57.918Z,84.10
2019-05-10T04:01:26.982Z,84.30
2019-05-10T04:03:56.118Z,84.30
2019-05-10T04:06:25.088Z,84.20
2019-05-10T04:08:54.788Z,84.00
2019-05-10T04:11:23.743Z,84.70
2019-05-10T04:13:52.702Z,84.10
2019-05-10T04:16:21.756Z,84.00
2019-05-10T04:18:50.745Z,84.20
2019-05-10T04:21:19.789Z,83.70
2019-05-10T04:23:48.755Z,83.90
2019-05-10T04:26:17.801Z,83.90
2019-05-10T04:28:46.852Z,83.50
2019-05-10T04:31:15.899Z,83.80
2019-05-10T04:33:44.972Z,83.70
2019-05-10T04:36:14.208Z,83.40
2019-05-10T04:38:43.246Z,83.50
2019-05-10T04:41:12.312Z,83.40
2019-05-10T04:43:41.360Z,83.10
2019-05-10T04:46:10.463Z,82.80
2019-05-10T04:48:39.499Z,83.10
2019-05-10T04:51:08.543Z,82.90
2019-05-10T04:53:37.593Z,82.80
2019-05-10T04:56:06.569Z,83.00
2019-05-10T04:58:35.638Z,82.90
2019-05-10T05:01:04.669Z,82.90
2019-05-10T05:03:33.705Z,82.90
2019-05-10T05:06:02.720Z,82.80
2019-05-10T05:08:31.755Z,82.70
2019-05-10T05:11:02.013Z,82.40
2019-05-10T05:13:31.013Z,82.90
2019-05-10T05:16:00.043Z,83.10
2019-05-10T05:18:29.195Z,83.30
2019-05-10T05:20:58.258Z,83.40
2019-05-10T05:23:27.335Z,83.80
2019-05-10T05:25:56.364Z,84.70
2019-05-10T05:28:25.420Z,84.20
2019-05-10T05:30:54.495Z,84.30
2019-05-10T05:33:23.901Z,83.90
2019-05-10T05:35:53.309Z,84.40
2019-05-10T05:38:22.293Z,84.20
2019-05-10T05:40:51.615Z,84.30
2019-05-10T05:43:20.588Z,84.20
2019-05-10T05:45:49.554Z,84.30
2019-05-10T05:48:21.384Z,84.00
2019-05-10T05:50:49.274Z,83.90
2019-05-10T05:53:22.098Z,83.50
2019-05-10T05:55:48.912Z,83.90
2019-05-10T05:58:26.573Z,83.50
2019-05-10T06:00:48.587Z,84.60
2019-05-10T06:03:27.452Z,83.60
2019-05-10T06:05:48.294Z,84.20
2019-05-10T06:08:23.565Z,84.50
2019-05-10T06:10:56.085Z,83.70
2019-05-10T06:13:23.547Z,83.20
2019-05-10T06:15:49.303Z,82.20
2019-05-10T06:18:18.718Z,82.00
2019-05-10T06:20:47.772Z,82.50
2019-05-10T06:23:16.798Z,82.10
2019-05-10T06:25:45.801Z,81.60
2019-05-10T06:28:26.247Z,82.30
2019-05-10T06:30:45.960Z,81.50
2019-05-10T06:33:15.065Z,81.10
2019-05-10T06:35:44.137Z,81.50
2019-05-10T06:38:14.654Z,82.00
2019-05-10T06:40:47.389Z,81.70
2019-05-10T06:43:15.600Z,81.70
2019-05-10T06:45:46.677Z,81.10
2019-05-10T06:48:26.123Z,81.30
2019-05-10T06:50:46.353Z,80.40
2019-05-10T06:53:15.387Z,80.50
2019-05-10T06:55:44.525Z,80.30
2019-05-10T06:58:13.491Z,81.20
2019-05-10T07:00:45.080Z,81.20
2019-05-10T07:03:13.218Z,80.20
2019-05-10T07:05:42.207Z,80.90
2019-05-10T07:08:19.561Z,80.60
2019-05-10T07:10:42.366Z,80.90
2019-05-10T07:13:11.387Z,80.20
2019-05-10T07:15:42.283Z,81.00
2019-05-10T07:18:11.358Z,80.70
2019-05-10T07:20:43.198Z,81.50
2019-05-10T07:23:10.984Z,81.20
2019-05-10T07:25:43.731Z,80.70
2019-05-10T07:28:15.979Z,79.60
2019-05-10T07:30:41.969Z,80.30
2019-05-10T07:33:11.182Z,79.30
2019-05-10T07:35:40.241Z,78.80
2019-05-10T07:38:09.701Z,78.90
2019-05-10T07:40:38.726Z,78.80
2019-05-10T07:43:07.820Z,80.30
2019-05-10T07:45:36.781Z,79.40
2019-05-10T07:48:08.402Z,80.20
2019-05-10T07:50:42.640Z,79.80
2019-05-10T07:53:07.962Z,79.80
2019-05-10T07:55:37.363Z,78.40
2019-05-10T07:58:07.116Z,77.20
2019-05-10T08:00:38.049Z,77.40
2019-05-10T08:03:15.789Z,79.00
2019-05-10T08:05:39.106Z,79.80
2019-05-10T08:08:09.565Z,77.80
2019-05-10T08:10:39.381Z,76.10
2019-05-10T08:13:08.748Z,76.80
2019-05-10T08:15:38.525Z,76.30
2019-05-10T08:18:09.828Z,73.00
2019-05-10T08:20:49.633Z,73.00
2019-05-10T08:23:09.604Z,71.70
2019-05-10T08:25:43.981Z,71.40
2019-05-10T08:28:12.532Z,71.70
2019-05-10T08:30:52.036Z,72.60
2019-05-10T08:33:14.875Z,71.30
2019-05-10T08:35:46.506Z,71.80
2019-05-10T08:38:14.783Z,72.80
2019-05-10T08:40:43.746Z,73.70
2019-05-10T08:43:16.705Z,73.70
2019-05-10T08:45:49.053Z,70.80
2019-05-10T08:48:14.469Z,71.70
2019-05-10T08:50:50.792Z,71.10
2019-05-10T08:53:16.459Z,71.50
2019-05-10T08:55:44.868Z,67.10
2019-05-10T08:58:13.865Z,67.80
2019-05-10T09:00:53.786Z,69.10
2019-05-10T09:03:18.273Z,70.70
2019-05-10T09:05:44.408Z,70.50
2019-05-10T09:08:19.729Z,71.70
2019-05-10T09:10:44.093Z,73.10
2019-05-10T09:13:13.677Z,70.00
2019-05-10T09:15:51.471Z,65.40
2019-05-10T09:18:13.727Z,66.10
2019-05-10T09:20:42.755Z,67.50
2019-05-10T09:23:15.252Z,67.60
2019-05-10T09:25:42.803Z,68.10
2019-05-10T09:28:16.928Z,67.20
2019-05-10T09:30:56.823Z,65.90
2019-05-10T09:33:14.661Z,67.70
2019-05-10T09:35:47.532Z,68.60
2019-05-10T09:38:14.480Z,69.20
2019-05-10T09:40:51.299Z,71.00
2019-05-10T09:43:14.971Z,72.80
2019-05-10T09:45:44.215Z,74.40
2019-05-10T09:48:13.256Z,72.40
2019-05-10T09:50:46.928Z,70.10
2019-05-10T09:53:16.296Z,71.30
2019-05-10T09:55:45.519Z,72.20
2019-05-10T09:58:14.374Z,69.70
2019-05-10T10:00:43.335Z,71.30
2019-05-10T10:03:13.099Z,68.70
2019-05-10T10:05:42.334Z,71.00
2019-05-10T10:08:11.393Z,78.20
2019-05-10T10:10:40.628Z,67.50
2019-05-10T10:13:13.382Z,67.30
2019-05-10T10:15:40.675Z,63.30
2019-05-10T10:18:12.522Z,67.00
2019-05-10T10:20:45.027Z,69.70
2019-05-10T10:23:11.501Z,69.00
2019-05-10T10:25:42.127Z,66.70
2019-05-10T10:28:17.242Z,60.00
2019-05-10T10:30:41.838Z,63.00
2019-05-10T10:33:13.754Z,58.90
2019-05-10T10:35:41.563Z,57.70
2019-05-10T10:38:10.625Z,59.00
2019-05-10T10:40:44.761Z,56.30
2019-05-10T10:43:10.345Z,55.80
2019-05-10T10:45:39.386Z,55.40
2019-05-10T10:48:12.650Z,55.50
2019-05-10T10:50:44.503Z,57.60
2019-05-10T10:53:10.113Z,60.00
2019-05-10T10:55:40.261Z,60.60
2019-05-10T10:58:09.508Z,63.30
2019-05-10T11:00:39.243Z,62.90
2019-05-10T11:03:08.489Z,63.80
2019-05-10T11:05:37.454Z,65.20
2019-05-10T11:08:06.529Z,67.30
2019-05-10T11:10:35.503Z,66.50
2019-05-10T11:13:10.995Z,67.80
2019-05-10T11:15:36.622Z,67.10
2019-05-10T11:18:05.838Z,67.30
2019-05-10T11:20:34.812Z,66.40
2019-05-10T11:23:03.935Z,69.70
2019-05-10T11:25:32.978Z,65.80
2019-05-10T11:28:02.094Z,63.60
2019-05-10T11:30:32.527Z,63.70
2019-05-10T11:33:01.933Z,69.10
2019-05-10T11:35:34.324Z,61.30
2019-05-10T11:38:06.763Z,65.00
2019-05-10T11:40:35.141Z,64.30
2019-05-10T11:43:03.648Z,59.60
2019-05-10T11:45:35.301Z,64.00
2019-05-10T11:48:03.363Z,64.70
2019-05-10T11:50:35.309Z,57.40
2019-05-10T11:53:07.016Z,55.80
2019-05-10T11:55:37.823Z,57.30
2019-05-10T11:58:08.889Z,54.40
2019-05-10T12:00:36.635Z,58.30
2019-05-10T12:03:11.363Z,58.10
2019-05-10T12:05:36.439Z,58.70
2019-05-10T12:08:05.474Z,58.80
2019-05-10T12:10:34.440Z,58.10
2019-05-10T12:13:14.903Z,57.10
2019-05-10T12:15:34.152Z,55.10
2019-05-10T12:18:04.718Z,53.70
2019-05-10T12:23:05.312Z,50.60
2019-05-10T12:26:16.312Z,49.30
2019-05-10T12:26:20.050Z,49.50
2019-05-10T12:28:05.326Z,50.60
2019-05-10T12:30:34.857Z,51.90
2019-05-10T12:33:09.500Z,53.30
2019-05-10T12:35:40.701Z,55.30
2019-05-10T12:38:06.432Z,56.60
2019-05-10T12:40:35.476Z,59.30
2019-05-10T12:43:04.552Z,60.50
2019-05-10T12:45:33.576Z,60.30
2019-05-10T12:48:02.591Z,57.20
2019-05-10T12:50:31.634Z,58.40
2019-05-10T12:53:07.092Z,57.00
2019-05-10T12:55:31.301Z,54.10
2019-05-10T12:58:00.327Z,55.40
2019-05-10T13:00:29.396Z,51.80
2019-05-10T13:03:11.531Z,52.20
2019-05-10T13:05:31.985Z,50.00
2019-05-10T13:08:00.512Z,51.00
2019-05-10T13:10:29.651Z,54.10
2019-05-10T13:12:59.215Z,50.30
2019-05-10T13:15:31.083Z,48.10
2019-05-10T13:17:58.936Z,50.70
2019-05-10T13:20:30.749Z,51.00
2019-05-10T13:22:58.588Z,50.60
2019-05-10T13:25:27.568Z,54.60
2019-05-10T13:27:56.609Z,55.30
2019-05-10T13:30:27.991Z,54.20
2019-05-10T13:32:58.653Z,58.30
2019-05-10T13:35:27.340Z,55.90
2019-05-10T13:37:56.928Z,52.10
2019-05-10T13:40:27.073Z,50.70
2019-05-10T13:42:56.164Z,51.00
2019-05-10T13:45:25.223Z,51.00
2019-05-10T13:47:54.519Z,51.50
2019-05-10T13:50:23.839Z,52.70
2019-05-10T13:52:52.816Z,52.10
2019-05-10T13:55:21.921Z,53.80
2019-05-10T13:57:54.039Z,50.70
2019-05-10T14:00:22.043Z,53.60
2019-05-10T14:02:51.116Z,53.20
2019-05-10T14:05:20.128Z,56.20
2019-05-10T14:07:52.043Z,48.30
2019-05-10T14:10:23.392Z,50.20
2019-05-10T14:12:50.591Z,50.60
2019-05-10T14:15:19.735Z,51.60
2019-05-10T14:17:48.797Z,51.60
2019-05-10T14:20:24.544Z,49.60
2019-05-10T14:22:55.875Z,48.80
2019-05-10T14:25:19.715Z,48.90
2019-05-10T14:27:48.736Z,49.40
2019-05-10T14:30:18.022Z,52.00
2019-05-10T14:32:46.993Z,50.20
2019-05-10T14:35:21.721Z,52.80
2019-05-10T14:37:48.034Z,52.70
2019-05-10T14:40:27.594Z,52.30
2019-05-10T14:42:48.215Z,54.30
2019-05-10T14:45:17.275Z,55.20
2019-05-10T14:47:50.202Z,55.70
2019-05-10T14:50:19.684Z,56.70
2019-05-10T14:52:48.112Z,56.00
2019-05-10T14:55:17.082Z,53.80
2019-05-10T14:57:46.098Z,53.90
2019-05-10T15:00:15.413Z,54.00
2019-05-10T15:02:44.720Z,53.90
2019-05-10T15:05:16.341Z,54.00
2019-05-10T15:07:44.517Z,53.40
2019-05-10T15:10:13.608Z,52.20
2019-05-10T15:12:42.627Z,54.40
2019-05-10T15:15:11.758Z,55.40
2019-05-10T15:17:40.801Z,54.10
2019-05-10T15:20:09.928Z,55.20
2019-05-10T15:22:38.920Z,56.60
2019-05-10T15:25:08.310Z,56.40
2019-05-10T15:27:37.365Z,56.80
2019-05-10T15:30:09.302Z,56.70
2019-05-10T15:32:38.473Z,58.10
2019-05-10T15:35:08.821Z,58.40
2019-05-10T15:37:40.655Z,57.30
2019-05-10T15:40:09.609Z,57.70
2019-05-10T15:42:38.700Z,57.50
2019-05-10T15:45:14.442Z,55.20
2019-05-10T15:47:50.741Z,56.20
2019-05-10T15:50:11.350Z,55.80
2019-05-10T15:52:46.262Z,55.60
2019-05-10T15:55:11.404Z,57.00
2019-05-10T15:57:40.480Z,56.40
2019-05-10T16:00:11.227Z,56.90
2019-05-10T16:02:40.307Z,54.90
2019-05-10T16:05:24.002Z,54.90
2019-05-10T16:07:40.391Z,56.90
2019-05-10T16:10:09.521Z,57.30
2019-05-10T16:12:43.175Z,57.70
2019-05-10T16:15:13.678Z,57.70
2019-05-10T16:17:40.207Z,58.40
2019-05-10T16:20:09.737Z,59.40
2019-05-10T16:22:39.106Z,60.20
2019-05-10T16:25:08.540Z,59.50
2019-05-10T16:27:41.734Z,59.20
2019-05-10T16:30:12.113Z,60.80
2019-05-10T16:32:40.097Z,63.50
2019-05-10T16:35:12.660Z,64.70
2019-05-10T16:37:40.246Z,66.50
2019-05-10T16:40:10.052Z,65.40
2019-05-10T16:42:39.404Z,68.30
2019-05-10T16:45:09.924Z,68.30
2019-05-10T16:47:38.886Z,68.40
2019-05-10T16:50:08.563Z,69.30
2019-05-10T16:52:37.584Z,69.50
2019-05-10T16:55:09.634Z,69.90
2019-05-10T16:57:39.485Z,70.50
2019-05-10T17:00:10.870Z,69.10
2019-05-10T17:02:42.198Z,68.60
2019-05-10T17:05:15.299Z,69.10
2019-05-10T17:07:42.238Z,69.40
2019-05-10T17:10:11.414Z,68.80
2019-05-10T17:12:40.402Z,67.40
2019-05-10T17:15:09.801Z,71.40
2019-05-10T17:17:39.282Z,71.10
2019-05-10T17:20:14.037Z,70.70
2019-05-10T17:22:41.030Z,66.40
2019-05-10T17:25:10.347Z,69.50
2019-05-10T17:27:39.377Z,70.00
2019-05-10T17:30:08.723Z,67.90
2019-05-10T17:32:37.769Z,69.70
2019-05-10T17:35:08.439Z,71.30
2019-05-10T17:37:37.646Z,71.70
2019-05-10T17:40:10.047Z,72.70
2019-05-10T17:42:41.154Z,73.30
2019-05-10T17:45:10.009Z,72.00
2019-05-10T17:47:39.110Z,71.20
2019-05-10T17:50:08.963Z,69.10
2019-05-10T17:52:37.936Z,69.20
2019-05-10T17:55:11.092Z,68.90
2019-05-10T17:57:39.193Z,69.50
2019-05-10T18:00:09.566Z,69.60
2019-05-10T18:02:38.549Z,70.70
2019-05-10T18:05:08.370Z,71.70
2019-05-10T18:07:37.676Z,71.10
2019-05-10T18:10:07.678Z,70.30
2019-05-10T18:12:36.725Z,68.30
2019-05-10T18:15:09.394Z,70.00
2019-05-10T18:17:38.354Z,70.70
2019-05-10T18:20:07.993Z,71.30
2019-05-10T18:22:43.263Z,71.00
2019-05-10T18:25:19.429Z,71.00
2019-05-10T18:27:39.286Z,71.70
2019-05-10T18:30:09.099Z,71.90
2019-05-10T18:32:38.118Z,71.60
2019-05-10T18:35:14.769Z,70.30
2019-05-10T18:37:38.462Z,70.50
2019-05-10T18:40:08.284Z,70.80
2019-05-10T18:42:37.277Z,71.10
2019-05-10T18:45:07.833Z,71.30
2019-05-10T18:47:36.829Z,72.00
2019-05-10T18:50:06.693Z,71.60
2019-05-10T18:52:35.762Z,72.20
2019-05-10T18:55:06.073Z,72.70
2019-05-10T18:57:35.520Z,72.40
2019-05-10T19:00:06.052Z,72.70
2019-05-10T19:02:35.253Z,72.60
2019-05-10T19:05:06.558Z,72.80
2019-05-10T19:07:35.548Z,73.00
2019-05-10T19:10:06.849Z,73.40
2019-05-10T19:12:36.428Z,73.10
2019-05-10T19:15:10.022Z,73.60
2019-05-10T19:17:40.349Z,73.80
2019-05-10T19:20:15.951Z,73.40
2019-05-10T19:22:41.656Z,73.20
2019-05-10T19:25:13.941Z,72.80
2019-05-10T19:27:44.648Z,73.00
2019-05-10T19:30:12.895Z,73.20
2019-05-10T19:32:41.858Z,73.60
2019-05-10T19:35:11.056Z,73.10
2019-05-10T19:37:40.123Z,73.90
2019-05-10T19:40:09.693Z,74.60
2019-05-10T19:42:42.958Z,74.70
2019-05-10T19:45:12.970Z,74.50
2019-05-10T19:47:40.273Z,75.00
2019-05-10T19:50:09.533Z,74.90
2019-05-10T19:52:38.496Z,75.40
2019-05-10T19:55:07.653Z,75.00
2019-05-10T19:57:38.381Z,74.50
2019-05-10T20:00:09.826Z,73.90
2019-05-10T20:02:38.880Z,73.90
2019-05-10T20:05:08.151Z,74.50
2019-05-10T20:07:45.780Z,74.90
2019-05-10T20:10:09.230Z,75.60
2019-05-10T20:12:38.501Z,75.70
2019-05-10T20:15:07.707Z,76.00
2019-05-10T20:17:37.210Z,76.70
2019-05-10T20:20:08.002Z,76.00
2019-05-10T20:22:36.976Z,75.70
2019-05-10T20:25:07.771Z,76.90
2019-05-10T20:27:36.738Z,76.40
2019-05-10T20:30:07.962Z,75.70
2019-05-10T20:32:36.936Z,75.60
2019-05-10T20:35:08.076Z,76.20
2019-05-10T20:37:37.138Z,76.50
2019-05-10T20:40:07.245Z,75.50
2019-05-10T20:42:36.333Z,74.00
2019-05-10T20:45:08.079Z,73.90
2019-05-10T20:47:36.378Z,73.80
2019-05-10T20:50:06.400Z,73.90
2019-05-10T20:52:35.379Z,74.30
2019-05-10T20:55:06.203Z,74.70
2019-05-10T20:57:35.256Z,75.50
2019-05-10T21:00:05.953Z,74.70
2019-05-10T21:02:35.032Z,73.80
2019-05-10T21:05:07.672Z,74.00
2019-05-10T21:07:36.668Z,74.60
2019-05-10T21:10:06.556Z,74.00
2019-05-10T21:12:35.602Z,73.70
2019-05-10T21:15:06.760Z,74.00
2019-05-10T21:17:35.742Z,74.50
2019-05-10T21:20:07.237Z,75.40
2019-05-10T21:22:36.222Z,75.10
2019-05-10T21:25:07.683Z,74.40
2019-05-10T21:27:36.684Z,74.80
2019-05-10T21:30:06.859Z,74.50
2019-05-10T21:32:35.869Z,75.20
2019-05-10T21:35:05.265Z,75.80
2019-05-10T21:37:34.305Z,74.40
2019-05-10T21:40:04.064Z,75.00
2019-05-10T21:42:33.142Z,75.70
2019-05-10T21:45:02.220Z,75.20
2019-05-10T21:47:31.328Z,73.90
2019-05-10T21:50:00.388Z,73.60
2019-05-10T21:52:29.448Z,73.60
2019-05-10T21:54:58.428Z,74.90
2019-05-10T21:57:27.689Z,74.30
2019-05-10T21:59:56.651Z,74.40
2019-05-10T22:02:25.755Z,74.70
2019-05-10T22:04:55.292Z,74.90
2019-05-10T22:07:24.348Z,74.80
2019-05-10T22:09:53.415Z,73.90
2019-05-10T22:12:22.389Z,74.50
2019-05-10T22:14:51.357Z,73.90
2019-05-10T22:17:20.679Z,74.60
2019-05-10T22:19:49.706Z,74.60
2019-05-10T22:22:18.711Z,75.20
2019-05-10T22:24:47.674Z,74.70
2019-05-10T22:27:16.653Z,75.10
2019-05-10T22:29:45.899Z,76.00
2019-05-10T22:32:14.884Z,76.20
2019-05-10T22:34:43.929Z,76.40
2019-05-10T22:37:12.989Z,76.30
2019-05-10T22:39:42.041Z,76.00
2019-05-10T22:42:11.009Z,76.00
2019-05-10T22:44:39.978Z,76.60
2019-05-10T22:47:09.226Z,76.90
2019-05-10T22:49:38.299Z,76.90
2019-05-10T22:52:07.301Z,76.60
2019-05-10T22:54:36.257Z,76.60
2019-05-10T22:57:05.499Z,76.10
2019-05-10T22:59:34.751Z,75.40
2019-05-10T23:02:03.713Z,75.20
2019-05-10T23:04:32.721Z,76.40
2019-05-10T23:07:01.789Z,75.50
2019-05-10T23:09:30.731Z,75.50
2019-05-10T23:11:59.709Z,76.90
2019-05-10T23:14:28.695Z,77.30
2019-05-10T23:16:57.748Z,77.10
2019-05-10T23:19:26.759Z,76.80
2019-05-10T23:21:55.823Z,76.20
2019-05-10T23:24:26.453Z,76.10
2019-05-10T23:26:55.417Z,75.50
2019-05-10T23:29:24.417Z,75.90
2019-05-10T23:31:53.456Z,76.90
2019-05-10T23:34:22.495Z,77.10
2019-05-10T23:36:51.475Z,77.40
2019-05-10T23:39:20.461Z,76.30
2019-05-10T23:41:49.459Z,77.00
2019-05-10T23:44:18.507Z,77.00
2019-05-10T23:46:47.465Z,75.80
2019-05-10T23:49:16.465Z,76.50
2019-05-10T23:51:45.763Z,76.30
2019-05-10T23:54:14.763Z,76.30
2019-05-10T23:56:43.801Z,76.60
2019-05-10T23:59:12.847Z,77.00
